createdAt,value
2022-10-28T03:47:05.184Z,101766.84
2022-10-28T03:50:08.682Z,101767.78
2022-10-28T03:53:11.216Z,101766.63
2022-10-28T03:56:13.932Z,101763.00
2022-10-28T03:59:19.308Z,101765.53
2022-10-28T04:02:23.218Z,101762.59
2022-10-28T04:05:25.979Z,101767.28
2022-10-28T04:08:28.706Z,101763.75
2022-10-28T04:11:32.240Z,101766.22
2022-10-28T04:14:34.625Z,101769.37
2022-10-28T04:17:37.428Z,101760.75
2022-10-28T04:20:40.401Z,101765.53
2022-10-28T04:23:43.125Z,101762.53
2022-10-28T04:26:45.534Z,101751.38
2022-10-28T04:29:48.264Z,101746.94
2022-10-28T04:32:50.808Z,101745.19
2022-10-28T04:35:53.525Z,101743.50
2022-10-28T04:38:56.250Z,101736.75
2022-10-28T04:41:58.900Z,101731.47
2022-10-28T04:45:01.553Z,101735.72
2022-10-28T04:48:05.052Z,101734.47
2022-10-28T04:51:07.744Z,101737.59
2022-10-28T04:54:10.601Z,101738.22
2022-10-28T04:57:13.191Z,101726.03
2022-10-28T05:00:16.096Z,101727.97
2022-10-28T05:03:18.556Z,101724.03
2022-10-28T05:06:21.335Z,101729.59
2022-10-28T05:09:23.777Z,101734.50
2022-10-28T05:12:26.591Z,101736.84
2022-10-28T05:15:31.301Z,101732.69
2022-10-28T05:18:34.210Z,101735.22
2022-10-28T05:21:36.655Z,101734.56
2022-10-28T05:24:39.426Z,101733.78
2022-10-28T05:27:47.442Z,101732.91
2022-10-28T05:30:50.358Z,101733.22
2022-10-28T05:33:52.938Z,101740.09
2022-10-28T05:36:55.688Z,101742.91
2022-10-28T05:39:58.383Z,101742.50
2022-10-28T05:43:01.898Z,101751.44
2022-10-28T05:46:05.022Z,101746.31
2022-10-28T05:49:07.726Z,101754.84
2022-10-28T05:52:10.202Z,101752.19
2022-10-28T05:55:12.925Z,101759.31
2022-10-28T05:58:16.510Z,101755.78
2022-10-28T06:01:19.196Z,101767.97
2022-10-28T06:04:22.130Z,101772.75
2022-10-28T06:07:24.698Z,101775.69
2022-10-28T06:10:27.618Z,101777.97
2022-10-28T06:13:28.564Z,101776.56
2022-10-28T06:16:31.384Z,101781.06
2022-10-28T06:19:33.878Z,101775.28
2022-10-28T06:22:36.624Z,101775.87
2022-10-28T06:25:39.153Z,101775.31
2022-10-28T06:28:41.893Z,101777.72
2022-10-28T06:31:44.584Z,101777.84
2022-10-28T06:34:47.355Z,101784.81
2022-10-28T06:37:55.005Z,101786.19
2022-10-28T06:40:58.235Z,101787.44
2022-10-28T06:44:00.933Z,101781.63
2022-10-28T06:47:05.249Z,101785.16
2022-10-28T06:50:08.030Z,101790.25
2022-10-28T06:53:10.870Z,101791.09
2022-10-28T06:56:13.337Z,101781.97
2022-10-28T06:59:16.454Z,101786.28
2022-10-28T07:02:19.037Z,101795.06
2022-10-28T07:05:23.665Z,101801.94
2022-10-28T07:08:29.532Z,101809.59
2022-10-28T07:11:32.687Z,101808.69
2022-10-28T07:14:35.149Z,101797.44
2022-10-28T07:17:37.955Z,101802.19
2022-10-28T07:20:40.350Z,101806.19
2022-10-28T07:23:43.188Z,101793.72
2022-10-28T07:26:48.595Z,101799.53
2022-10-28T07:29:51.315Z,101794.25
2022-10-28T07:32:54.251Z,101791.09
2022-10-28T07:35:57.209Z,101792.75
2022-10-28T07:38:59.668Z,101791.38
2022-10-28T07:42:02.459Z,101794.47
2022-10-28T07:45:05.838Z,101803.13
2022-10-28T07:48:09.530Z,101813.56
2022-10-28T07:51:14.642Z,101815.66
2022-10-28T07:54:17.355Z,101812.81
2022-10-28T07:57:19.894Z,101801.97
2022-10-28T08:00:22.673Z,101809.81
2022-10-28T08:03:34.602Z,101809.37
2022-10-28T08:06:40.955Z,101804.50
2022-10-28T08:09:43.895Z,101806.47
2022-10-28T08:12:46.523Z,101801.56
2022-10-28T08:15:54.409Z,101791.28
2022-10-28T08:18:56.938Z,101788.44
2022-10-28T08:21:59.889Z,101784.56
2022-10-28T08:25:02.323Z,101782.66
2022-10-28T08:28:05.317Z,101779.03
2022-10-28T08:31:10.142Z,101785.56
2022-10-28T08:34:13.024Z,101784.72
2022-10-28T08:37:16.383Z,101788.47
2022-10-28T08:40:28.990Z,101799.69
2022-10-28T08:43:58.081Z,101795.59
2022-10-28T08:47:07.012Z,101798.12
2022-10-28T08:50:15.627Z,101807.50
2022-10-28T08:53:34.355Z,101809.50
2022-10-28T08:56:46.264Z,101806.34
2022-10-28T08:59:53.063Z,101804.16
2022-10-28T09:03:16.868Z,101804.47
2022-10-28T09:06:19.978Z,101806.41
2022-10-28T09:09:23.598Z,101810.66
2022-10-28T09:12:48.500Z,101818.34
2022-10-28T09:16:16.005Z,101821.28
2022-10-28T09:19:47.323Z,101817.72
2022-10-28T09:23:03.857Z,101810.47
2022-10-28T09:26:28.414Z,101817.47
2022-10-28T09:30:23.018Z,101812.38
2022-10-28T09:33:35.058Z,101818.25
2022-10-28T09:36:42.235Z,101817.00
2022-10-28T09:39:49.650Z,101820.75
2022-10-28T09:43:01.180Z,101810.69
2022-10-28T09:46:17.411Z,101796.63
2022-10-28T09:49:28.368Z,101801.06
2022-10-28T09:52:39.086Z,101811.03
2022-10-28T09:55:41.707Z,101813.94
2022-10-28T09:58:47.155Z,101805.19
2022-10-28T10:01:50.045Z,101809.19
2022-10-28T10:04:54.503Z,101805.56
2022-10-28T10:08:06.981Z,101806.81
2022-10-28T10:11:42.846Z,101799.56
2022-10-28T10:14:51.381Z,101811.59
2022-10-28T10:17:58.157Z,101815.94
2022-10-28T10:21:01.252Z,101813.53
2022-10-28T10:24:27.005Z,101808.12
2022-10-28T10:27:30.826Z,101813.94
2022-10-28T10:30:38.116Z,101807.50
2022-10-28T10:33:41.015Z,101810.66
2022-10-28T10:36:51.003Z,101809.16
2022-10-28T10:40:25.305Z,101803.97
2022-10-28T10:43:36.149Z,101817.09
2022-10-28T10:46:38.691Z,101804.81
2022-10-28T10:49:41.507Z,101798.66
2022-10-28T10:52:56.700Z,101797.16
2022-10-28T10:56:07.052Z,101796.50
2022-10-28T10:59:27.137Z,101787.22
2022-10-28T11:02:39.691Z,101786.56
2022-10-28T11:05:55.149Z,101790.63
2022-10-28T11:09:30.807Z,101787.41
2022-10-28T11:12:36.435Z,101792.91
2022-10-28T11:15:39.319Z,101787.84
2022-10-28T11:18:47.187Z,101792.78
2022-10-28T11:22:12.643Z,101780.31
2022-10-28T11:25:33.231Z,101780.41
2022-10-28T11:28:53.237Z,101783.44
2022-10-28T11:32:01.933Z,101777.06
2022-10-28T11:35:22.709Z,101782.84
2022-10-28T11:38:31.300Z,101789.25
2022-10-28T11:41:36.804Z,101781.44
2022-10-28T11:44:54.638Z,101779.44
2022-10-28T11:48:12.568Z,101766.19
2022-10-28T11:51:44.071Z,101769.19
2022-10-28T11:55:14.084Z,101766.69
2022-10-28T11:58:40.038Z,101751.34
2022-10-28T12:02:03.713Z,101755.44
2022-10-28T12:05:16.839Z,101747.88
2022-10-28T12:08:39.595Z,101746.47
2022-10-28T12:12:06.293Z,101749.69
2022-10-28T12:15:40.786Z,101743.00
2022-10-28T12:19:27.010Z,101731.94
2022-10-28T12:22:41.693Z,101732.28
2022-10-28T12:25:49.679Z,101733.66
2022-10-28T12:28:58.746Z,101729.06
2022-10-28T12:32:09.077Z,101734.75
2022-10-28T12:35:19.960Z,101729.03
2022-10-28T12:38:33.976Z,101722.13
2022-10-28T12:42:14.182Z,101724.84
2022-10-28T12:45:20.665Z,101718.06
2022-10-28T12:48:35.576Z,101718.41
2022-10-28T12:51:40.783Z,101723.34
2022-10-28T12:55:07.456Z,101721.25
2022-10-28T12:58:18.376Z,101723.94
2022-10-28T13:01:24.422Z,101718.22
2022-10-28T13:04:28.741Z,101709.41
2022-10-28T13:08:23.980Z,101700.47
2022-10-28T13:11:26.647Z,101702.16
2022-10-28T13:14:41.292Z,101694.41
2022-10-28T13:18:03.582Z,101701.41
2022-10-28T13:21:14.954Z,101699.19
2022-10-28T13:24:34.004Z,101704.03
2022-10-28T13:30:57.691Z,101704.91
2022-10-28T13:34:00.513Z,101703.69
2022-10-28T13:37:06.653Z,101706.66
2022-10-28T13:40:31.568Z,101701.56
2022-10-28T13:43:49.594Z,101706.50
2022-10-28T13:47:10.400Z,101703.84
2022-10-28T13:50:22.406Z,101701.31
2022-10-28T13:53:24.834Z,101693.03
2022-10-28T13:56:27.520Z,101697.22
2022-10-28T13:59:37.880Z,101696.38
2022-10-28T14:02:46.736Z,101701.44
2022-10-28T14:05:52.226Z,101700.94
2022-10-28T14:08:56.333Z,101696.88
2022-10-28T14:12:24.050Z,101706.66
2022-10-28T14:15:33.556Z,101707.50
2022-10-28T14:18:45.000Z,101701.37
2022-10-28T14:22:02.026Z,101710.38
2022-10-28T14:25:41.356Z,101717.78
2022-10-28T14:28:43.751Z,101713.66
2022-10-28T14:31:46.534Z,101703.22
2022-10-28T14:34:49.560Z,101696.41
2022-10-28T14:37:55.414Z,101692.50
2022-10-28T14:41:18.701Z,101702.00
2022-10-28T14:44:30.305Z,101702.78
2022-10-28T14:47:38.732Z,101704.63
2022-10-28T14:50:47.868Z,101702.78
2022-10-28T14:53:54.889Z,101708.44
2022-10-28T14:56:57.727Z,101701.16
2022-10-28T15:00:08.425Z,101702.88
2022-10-28T15:03:12.201Z,101689.19
2022-10-28T15:06:39.283Z,101697.38
2022-10-28T15:09:43.707Z,101691.59
2022-10-28T15:12:51.249Z,101688.16
2022-10-28T15:15:59.342Z,101685.75
2022-10-28T15:19:06.466Z,101679.66
2022-10-28T15:22:16.500Z,101683.91
2022-10-28T15:25:21.733Z,101675.09
2022-10-28T15:28:27.673Z,101670.19
2022-10-28T15:31:30.141Z,101667.81
2022-10-28T15:34:32.855Z,101668.41
2022-10-28T15:37:36.358Z,101657.41
2022-10-28T15:40:39.046Z,101659.72
2022-10-28T15:43:41.498Z,101661.72
2022-10-28T15:46:49.200Z,101664.72
2022-10-28T15:50:01.095Z,101668.25
